Time;durP1;ratioP1;P1;durP2;ratioP2;P2;SDS_P1;SDS_P2;PMS_P1;PMS_P2;Temp;Humidity;BMP_temperature;BMP_pressure;BME280_temperature;BME280_humidity;BME280_pressure;Samples;Min_cycle;Max_cycle;Signal;HPM_P1;HPM_P2
2022/07/08 00:00:31;;;;;;;195.43;125.29;;;;;;;23.75;39.54;100583.41;454635;114;922539;-74
2022/07/08 00:01:34;;;;;;;189.90;123.69;;;;;;;23.75;39.50;100585.36;454513;116;922791;-74
2022/07/08 00:02:37;;;;;;;207.84;127.44;;;;;;;23.73;39.46;100580.09;454628;116;922480;-74
2022/07/08 00:03:40;;;;;;;189.22;122.19;;;;;;;23.72;39.53;100577.59;454612;116;922631;-74
2022/07/08 00:04:44;;;;;;;192.21;123.88;;;;;;;23.71;39.49;100575.97;454513;116;922557;-74
2022/07/08 00:05:47;;;;;;;186.59;122.67;;;;;;;23.68;39.53;100575.43;454612;114;922614;-74
2022/07/08 00:06:50;;;;;;;188.80;123.13;;;;;;;23.67;39.68;100582.13;453023;116;922615;-74
2022/07/08 00:07:53;;;;;;;196.51;122.98;;;;;;;23.67;39.55;100581.30;451593;117;922588;-74
2022/07/08 00:08:56;;;;;;;181.78;121.58;;;;;;;23.66;39.63;100576.84;451629;117;922617;-74
2022/07/08 00:09:59;;;;;;;186.45;120.56;;;;;;;23.65;39.62;100573.23;451560;117;922580;-74
2022/07/08 00:11:03;;;;;;;188.68;121.51;;;;;;;23.63;39.64;100581.08;451649;115;922606;-74
2022/07/08 00:12:06;;;;;;;178.66;118.12;;;;;;;23.62;39.68;100582.20;451660;117;922617;-74
2022/07/08 00:13:09;;;;;;;186.48;119.57;;;;;;;23.61;39.80;100579.71;451598;117;922510;-74
2022/07/08 00:14:12;;;;;;;185.44;122.14;;;;;;;23.62;39.81;100584.16;451753;117;923401;-74
2022/07/08 00:15:15;;;;;;;191.90;119.41;;;;;;;23.61;39.83;100580.55;452815;117;922913;-74
2022/07/08 00:16:19;;;;;;;186.46;119.04;;;;;;;23.62;39.85;100584.16;452747;117;922970;-74
2022/07/08 00:17:22;;;;;;;182.91;117.90;;;;;;;23.61;39.95;100583.33;452823;117;922835;-74
2022/07/08 00:18:25;;;;;;;187.02;117.28;;;;;;;23.60;39.88;100580.83;452841;117;922937;-74
2022/07/08 00:19:29;;;;;;;175.71;117.86;;;;;;;23.60;39.92;100584.45;452684;117;923001;-74
2022/07/08 00:20:32;;;;;;;178.83;117.67;;;;;;;23.59;39.89;100577.25;452759;117;922618;-74
2022/07/08 00:21:35;;;;;;;183.07;119.10;;;;;;;23.58;39.90;100578.38;452813;117;922568;-74
2022/07/08 00:22:38;;;;;;;175.03;116.97;;;;;;;23.57;39.85;100579.50;452809;117;922700;-74
2022/07/08 00:23:41;;;;;;;174.02;112.53;;;;;;;23.57;39.74;100587.02;452828;117;922616;-72
2022/07/08 00:24:44;;;;;;;168.36;114.60;;;;;;;23.57;39.55;100582.28;452771;117;922652;-74
2022/07/08 00:25:47;;;;;;;173.07;114.07;;;;;;;23.56;39.39;100579.79;452738;117;922826;-74
2022/07/08 00:26:50;;;;;;;172.34;113.37;;;;;;;23.56;39.28;100579.79;452834;117;922598;-74
2022/07/08 00:27:53;;;;;;;170.84;113.52;;;;;;;23.54;39.19;100582.86;452811;117;922576;-74
2022/07/08 00:28:56;;;;;;;173.14;114.06;;;;;;;23.55;39.00;100584.52;452814;117;922617;-74
2022/07/08 00:29:59;;;;;;;174.80;111.21;;;;;;;23.53;38.86;100581.23;453934;116;922826;-74
2022/07/08 00:31:02;;;;;;;169.47;112.67;;;;;;;23.53;38.71;100585.97;454613;114;922595;-74
2022/07/08 00:32:05;;;;;;;177.31;114.62;;;;;;;23.53;38.61;100585.97;454615;116;922626;-74
2022/07/08 00:33:09;;;;;;;172.97;110.60;;;;;;;23.53;38.56;100588.75;454497;116;923081;-74
2022/07/08 00:34:12;;;;;;;168.75;111.07;;;;;;;23.52;38.49;100590.70;454608;114;922802;-74
2022/07/08 00:35:15;;;;;;;172.18;111.69;;;;;;;23.51;38.50;100577.91;454626;116;923168;-74
2022/07/08 00:36:18;;;;;;;169.92;110.39;;;;;;;23.50;38.50;100587.39;454642;116;922816;-74
2022/07/08 00:37:21;;;;;;;175.19;112.68;;;;;;;23.48;38.60;100588.83;454631;116;922695;-74
2022/07/08 00:38:24;;;;;;;171.01;110.51;;;;;;;23.47;38.65;100592.73;454669;116;922598;-74
2022/07/08 00:39:27;;;;;;;175.39;112.37;;;;;;;23.45;38.79;100589.38;456365;116;922633;-74
2022/07/08 00:40:31;;;;;;;177.67;110.22;;;;;;;23.43;38.83;100589.67;457140;114;922586;-74
2022/07/08 00:41:34;;;;;;;169.81;109.88;;;;;;;23.43;38.91;100588.88;457333;116;922872;-74
2022/07/08 00:42:37;;;;;;;173.58;112.40;;;;;;;23.40;39.01;100598.64;457321;115;922901;-74
2022/07/08 00:43:42;;;;;;;172.37;112.77;;;;;;;23.39;39.07;100591.41;457265;116;922505;-74
2022/07/08 00:44:45;;;;;;;175.12;111.18;;;;;;;23.38;39.20;100591.70;457091;116;922624;-74
2022/07/08 00:45:48;;;;;;;165.43;109.37;;;;;;;23.33;39.16;100583.42;457312;114;922615;-74
2022/07/08 00:46:52;;;;;;;170.49;111.99;;;;;;;23.29;39.33;100591.55;457253;115;923330;-74
2022/07/08 00:47:55;;;;;;;167.96;110.52;;;;;;;23.25;39.58;100587.72;457302;116;922575;-74
2022/07/08 00:48:58;;;;;;;168.31;110.32;;;;;;;23.21;39.79;100587.47;457336;115;922631;-74
2022/07/08 00:50:01;;;;;;;166.14;110.52;;;;;;;23.20;40.05;100593.36;457296;116;922640;-74
2022/07/08 00:51:07;;;;;;;170.45;109.09;;;;;;;23.17;40.20;100591.98;457286;114;923339;-74
2022/07/08 00:52:10;;;;;;;170.42;109.46;;;;;;;23.16;40.35;100587.54;457101;116;922658;-74
2022/07/08 00:53:14;;;;;;;167.35;107.38;;;;;;;23.15;40.63;100587.86;457192;116;922538;-74
2022/07/08 00:54:19;;;;;;;164.64;108.09;;;;;;;23.14;40.89;100602.89;457236;116;922520;-74
2022/07/08 00:55:22;;;;;;;168.32;107.12;;;;;;;23.13;41.09;100604.01;457081;116;922751;-74
2022/07/08 00:56:27;;;;;;;170.43;109.77;;;;;;;23.13;41.26;100606.79;457224;116;922862;-74
2022/07/08 00:57:31;;;;;;;156.33;103.11;;;;;;;23.13;41.40;100598.45;457190;115;922678;-74
2022/07/08 00:58:36;;;;;;;164.78;106.99;;;;;;;23.12;41.51;100594.00;457256;116;922874;-74
2022/07/08 00:59:39;;;;;;;162.59;107.96;;;;;;;23.12;41.66;100596.78;457243;115;922937;-74
2022/07/08 01:00:42;;;;;;;174.46;109.15;;;;;;;23.13;41.82;100598.45;457377;114;922999;-74
2022/07/08 01:01:46;;;;;;;163.51;108.39;;;;;;;23.13;41.96;100598.45;457248;115;922509;-75
2022/07/08 01:02:51;;;;;;;170.60;113.22;;;;;;;23.13;42.10;100601.23;457368;115;922580;-75
2022/07/08 01:03:54;;;;;;;167.93;111.92;;;;;;;23.13;42.23;100593.71;457179;116;922545;-75
2022/07/08 01:04:57;;;;;;;174.16;113.61;;;;;;;23.13;42.33;100604.84;457239;116;923055;-75
2022/07/08 01:06:01;;;;;;;168.81;110.92;;;;;;;23.12;42.41;100600.40;457334;114;922557;-75
2022/07/08 01:07:04;;;;;;;175.30;114.08;;;;;;;23.11;42.49;100590.39;454403;116;923315;-75
2022/07/08 01:08:07;;;;;;;169.15;110.88;;;;;;;23.10;42.58;100597.08;453639;117;922583;-75
2022/07/08 01:09:10;;;;;;;170.16;112.66;;;;;;;23.10;42.62;100599.05;453643;117;923053;-75
2022/07/08 01:10:13;;;;;;;177.39;114.27;;;;;;;23.09;42.65;100594.61;453603;115;922923;-75
2022/07/08 01:11:16;;;;;;;175.31;114.06;;;;;;;23.08;42.79;100598.52;453606;117;922741;-75
2022/07/08 01:12:19;;;;;;;172.21;114.59;;;;;;;23.06;42.75;100601.58;453652;117;922895;-75
2022/07/08 01:13:24;;;;;;;171.25;112.34;;;;;;;23.04;42.75;100600.24;453628;117;923228;-74
2022/07/08 01:14:27;;;;;;;172.42;114.37;;;;;;;23.03;42.76;100599.41;454503;116;922675;-75
2022/07/08 01:15:47;;;;;;;175.77;114.91;;;;;;;23.01;42.77;100600.81;456981;116;930137;-75
2022/07/08 01:16:51;;;;;;;190.02;121.55;;;;;;;23.01;42.75;100592.48;457125;116;922573;-74
2022/07/08 01:17:54;;;;;;;183.63;122.94;;;;;;;23.00;42.74;100599.16;457166;116;923025;-75
2022/07/08 01:18:58;;;;;;;193.55;129.30;;;;;;;22.99;42.71;100594.75;457130;116;922793;-75
2022/07/08 01:20:01;;;;;;;205.48;132.61;;;;;;;22.98;42.67;100595.86;457143;116;923468;-75
2022/07/08 01:21:04;;;;;;;215.16;139.28;;;;;;;22.97;42.62;100597.81;457147;116;922624;-75
2022/07/08 01:22:07;;;;;;;212.53;136.69;;;;;;;22.96;42.54;100600.88;457181;116;923065;-75
2022/07/08 01:23:10;;;;;;;207.62;134.31;;;;;;;22.94;42.52;100600.34;457132;116;922633;-75
2022/07/08 01:24:13;;;;;;;199.83;130.81;;;;;;;22.92;42.56;100597.05;457110;116;922970;-75
2022/07/08 01:25:16;;;;;;;201.55;130.87;;;;;;;22.90;42.58;100596.50;457130;116;923074;-75
2022/07/08 01:26:22;;;;;;;200.86;130.31;;;;;;;22.90;42.57;100597.33;456931;116;923026;-75
2022/07/08 01:27:25;;;;;;;204.14;134.95;;;;;;;22.88;42.54;100594.84;457193;116;922632;-75
2022/07/08 01:28:28;;;;;;;215.72;141.01;;;;;;;22.86;42.57;100599.89;447834;118;922592;-76
2022/07/08 01:29:31;;;;;;;225.12;140.89;;;;;;;22.86;42.57;100599.89;447388;117;923534;-76
2022/07/08 01:30:34;;;;;;;221.88;147.13;;;;;;;22.85;42.45;100601.01;454619;114;922918;-75
2022/07/08 01:31:37;;;;;;;227.70;147.22;;;;;;;22.84;42.42;100602.13;455131;116;922489;-75
2022/07/08 01:32:41;;;;;;;234.38;144.70;;;;;;;22.83;42.36;100600.46;455143;116;922564;-75
2022/07/08 01:33:44;;;;;;;216.45;140.75;;;;;;;22.81;42.33;100608.29;455487;114;922718;-75
2022/07/08 01:34:47;;;;;;;216.64;141.11;;;;;;;22.80;42.38;100598.29;457326;116;923266;-75
2022/07/08 01:35:50;;;;;;;220.96;141.08;;;;;;;22.78;42.49;100600.52;457307;114;922592;-75
2022/07/08 01:36:53;;;;;;;232.44;148.48;;;;;;;22.76;42.48;100599.18;457320;116;923338;-75
2022/07/08 01:37:56;;;;;;;229.00;146.26;;;;;;;22.73;42.39;100599.75;457283;116;922619;-75
2022/07/08 01:38:59;;;;;;;235.57;148.25;;;;;;;22.69;42.53;100607.83;457275;116;923545;-75
2022/07/08 01:40:03;;;;;;;227.28;148.47;;;;;;;22.66;42.51;100608.41;457323;115;922784;-75
2022/07/08 01:41:07;;;;;;;236.92;147.45;;;;;;;22.63;42.62;100602.61;457345;114;923156;-75
2022/07/08 01:42:10;;;;;;;213.36;142.87;;;;;;;22.60;42.65;100617.95;457394;116;922561;-75
2022/07/08 01:43:13;;;;;;;202.28;135.68;;;;;;;22.59;42.72;100609.89;457474;116;922593;-75
2022/07/08 01:44:16;;;;;;;210.48;133.34;;;;;;;22.55;42.79;100617.17;457417;115;922562;-75
2022/07/08 01:45:19;;;;;;;208.59;134.19;;;;;;;22.52;42.88;100609.40;457301;114;922703;-75
2022/07/08 01:46:23;;;;;;;218.85;138.41;;;;;;;22.50;42.92;100612.47;457284;115;922593;-75
2022/07/08 01:47:26;;;;;;;214.31;140.04;;;;;;;22.46;42.97;100606.67;457398;115;922793;-75
2022/07/08 01:48:29;;;;;;;227.31;140.24;;;;;;;22.44;43.08;100613.63;457411;116;922579;-75
2022/07/08 01:49:33;;;;;;;217.71;138.70;;;;;;;22.42;43.10;100610.34;457334;115;923015;-75
2022/07/08 01:50:36;;;;;;;222.27;145.95;;;;;;;22.40;43.12;100615.34;457338;114;930540;-75
2022/07/08 01:51:39;;;;;;;217.72;143.23;;;;;;;22.37;43.13;100611.22;457358;116;923021;-75
2022/07/08 01:52:42;;;;;;;222.71;148.10;;;;;;;22.34;43.22;100617.34;457394;115;922606;-75
2022/07/08 01:53:45;;;;;;;235.44;149.95;;;;;;;22.32;43.28;100608.49;457439;116;922610;-75
2022/07/08 01:54:49;;;;;;;232.38;152.66;;;;;;;22.31;43.41;100608.77;457387;116;923055;-75
2022/07/08 01:55:52;;;;;;;240.04;151.06;;;;;;;22.30;43.43;100610.72;457286;114;922560;-75
2022/07/08 01:57:13;;;;;;;235.36;153.33;;;;;;;22.27;43.70;100613.27;457452;115;922537;-75
2022/07/08 01:58:00;;;;;;;245.98;154.16;;;;;;;22.27;43.70;100613.27;455332;116;922650;-74
2022/07/08 01:59:03;;;;;;;243.41;157.96;;;;;;;22.27;43.53;100616.87;457415;116;922672;-74
2022/07/08 02:00:07;;;;;;;235.91;154.93;;;;;;;22.26;43.46;100614.38;457339;115;922445;-74
2022/07/08 02:01:15;;;;;;;254.70;162.28;;;;;;;22.26;43.59;100617.99;456820;115;930526;-73
2022/07/08 02:02:20;;;;;;;262.12;168.14;;;;;;;22.26;43.75;100619.94;457485;116;922480;-75
2022/07/08 02:03:23;;;;;;;267.66;167.81;;;;;;;22.26;43.72;100619.94;457337;116;922556;-75
2022/07/08 02:04:26;;;;;;;255.85;168.85;;;;;;;22.26;43.72;100617.16;457373;115;930351;-75
2022/07/08 02:05:32;;;;;;;260.77;170.28;;;;;;;22.25;43.71;100624.66;457427;114;922591;-75
2022/07/08 02:06:34;;;;;;;273.02;174.08;;;;;;;22.24;43.70;100622.16;455842;116;922637;-75
2022/07/08 02:07:38;;;;;;;268.99;173.31;;;;;;;22.24;43.75;100624.94;452479;117;922678;-75
2022/07/08 02:08:42;;;;;;;275.56;176.02;;;;;;;22.22;43.86;100616.09;452350;117;922545;-75
2022/07/08 02:09:45;;;;;;;264.10;172.28;;;;;;;22.22;43.89;100616.09;452389;117;922517;-75
2022/07/08 02:12:19;;;;;;;266.17;172.38;;;;;;;22.23;44.06;100624.11;452248;117;923431;-75
2022/07/08 02:13:22;;;;;;;274.19;179.36;;;;;;;22.24;44.09;100622.16;452253;117;922620;-75
2022/07/08 02:14:25;;;;;;;270.93;179.71;;;;;;;22.26;44.19;100623.55;451549;117;922916;-75
2022/07/08 02:15:28;;;;;;;283.98;181.85;;;;;;;22.27;44.24;100622.43;449149;116;922894;-75
2022/07/08 02:16:31;;;;;;;278.85;179.70;;;;;;;22.28;44.23;100617.67;449214;117;922515;-75
2022/07/08 02:17:40;;;;;;;283.65;181.94;;;;;;;22.29;44.27;100622.95;449128;118;922707;-75
2022/07/08 02:18:43;;;;;;;288.34;186.11;;;;;;;22.30;44.30;100615.45;448997;118;922559;-75
2022/07/08 02:19:46;;;;;;;280.87;186.72;;;;;;;22.29;44.24;100617.39;449198;118;922647;-75
2022/07/08 02:20:51;;;;;;;282.22;185.16;;;;;;;22.29;44.16;100613.78;449086;116;922837;-75
2022/07/08 02:21:54;;;;;;;297.56;191.50;;;;;;;22.28;44.18;100623.23;449093;117;930465;-75
2022/07/08 02:22:57;;;;;;;283.26;188.66;;;;;;;22.26;44.19;100617.99;449219;118;922977;-75
2022/07/08 02:24:00;;;;;;;295.84;189.82;;;;;;;22.26;44.28;100622.71;449252;118;922755;-75
2022/07/08 02:25:03;;;;;;;286.17;189.81;;;;;;;22.24;44.33;100620.22;449209;117;922956;-75
2022/07/08 02:26:06;;;;;;;285.47;191.46;;;;;;;22.25;44.42;100616.33;449174;116;922802;-75
2022/07/08 02:27:09;;;;;;;295.72;193.29;;;;;;;22.25;44.54;100613.55;449197;117;922541;-75
2022/07/08 02:28:12;;;;;;;295.12;191.48;;;;;;;22.27;44.63;100622.43;449159;117;923053;-75
2022/07/08 02:29:15;;;;;;;290.10;195.51;;;;;;;22.29;44.55;100622.11;449164;117;922574;-75
2022/07/08 02:30:19;;;;;;;288.84;191.34;;;;;;;22.28;44.56;100621.28;453401;114;922593;-75
2022/07/08 02:31:22;;;;;;;299.94;192.37;;;;;;;22.29;44.61;100622.11;455225;116;930433;-75
2022/07/08 02:32:25;;;;;;;306.04;198.61;;;;;;;22.30;44.73;100623.78;455221;116;923160;-75
2022/07/08 02:33:28;;;;;;;312.29;207.36;;;;;;;22.32;44.77;100616.00;455302;116;922622;-75
2022/07/08 02:34:31;;;;;;;319.26;206.47;;;;;;;22.34;44.76;100622.06;457328;114;922566;-75
2022/07/08 02:35:34;;;;;;;312.98;208.30;;;;;;;22.34;44.71;100622.91;457351;116;923159;-75
2022/07/08 02:36:37;;;;;;;322.71;207.57;;;;;;;22.37;44.64;100629.84;457446;116;922602;-75
2022/07/08 02:37:41;;;;;;;323.82;206.81;;;;;;;22.37;44.61;100618.72;457407;115;923265;-75
2022/07/08 02:38:44;;;;;;;312.44;202.17;;;;;;;22.39;44.58;100624.80;457411;116;922466;-75
2022/07/08 02:39:47;;;;;;;307.56;206.66;;;;;;;22.40;44.60;100620.91;457373;115;922530;-75
2022/07/08 02:40:50;;;;;;;324.39;215.25;;;;;;;22.42;44.64;100616.72;457358;114;922523;-75
2022/07/08 02:41:53;;;;;;;311.02;205.23;;;;;;;22.44;44.64;100619.19;457305;116;922620;-75
2022/07/08 02:42:56;;;;;;;314.07;204.67;;;;;;;22.44;44.59;100625.58;457346;116;923072;-75
2022/07/08 02:43:59;;;;;;;305.14;204.92;;;;;;;22.44;44.53;100633.91;457351;115;923034;-75
2022/07/08 02:45:02;;;;;;;306.05;203.77;;;;;;;22.44;44.56;100624.75;457335;115;923052;-75
2022/07/08 02:46:06;;;;;;;312.24;208.06;;;;;;;22.43;44.59;100620.34;457304;115;922555;-75
2022/07/08 02:47:09;;;;;;;304.29;207.43;;;;;;;22.44;44.62;100624.75;449472;117;922533;-75
2022/07/08 02:48:12;;;;;;;300.51;200.35;;;;;;;22.45;44.62;100627.23;449522;118;923151;-75
2022/07/08 02:49:15;;;;;;;307.60;202.13;;;;;;;22.45;44.65;100626.41;449543;118;922696;-74
2022/07/08 02:50:20;;;;;;;299.72;200.31;;;;;;;22.44;44.75;100625.58;448886;116;923034;-75
2022/07/08 02:51:23;;;;;;;289.37;192.91;;;;;;;22.46;44.74;100634.46;449488;117;922581;-75
2022/07/08 02:52:26;;;;;;;292.13;196.78;;;;;;;22.48;44.70;100627.79;449489;118;922561;-75
2022/07/08 02:53:29;;;;;;;286.54;192.46;;;;;;;22.49;44.60;100629.45;449450;118;922790;-75
2022/07/08 02:54:32;;;;;;;298.92;197.20;;;;;;;22.51;44.44;100627.19;449480;117;922629;-75
2022/07/08 02:55:35;;;;;;;300.98;198.02;;;;;;;22.51;44.43;100630.80;449446;118;922566;-75
2022/07/08 02:56:38;;;;;;;298.66;201.31;;;;;;;22.53;44.42;100633.30;442668;119;922657;-75
2022/07/08 02:57:41;;;;;;;295.79;194.19;;;;;;;22.53;44.37;100634.13;442836;118;922699;-75
2022/07/08 02:58:44;;;;;;;283.42;196.99;;;;;;;22.54;44.38;100630.23;449455;117;923084;-75
2022/07/08 02:59:47;;;;;;;291.11;192.96;;;;;;;22.54;44.39;100633.02;449464;118;922557;-75
2022/07/08 03:00:50;;;;;;;294.76;195.87;;;;;;;22.53;44.33;100630.52;449429;116;922540;-75
2022/07/08 03:01:53;;;;;;;270.77;185.73;;;;;;;22.52;44.21;100632.47;449489;118;922604;-73
2022/07/08 03:02:56;;;;;;;279.49;188.87;;;;;;;22.49;44.11;100638.62;449504;117;922542;-76
2022/07/08 03:03:59;;;;;;;290.30;191.89;;;;;;;22.47;44.11;100635.30;449518;117;922594;-75
2022/07/08 03:05:03;;;;;;;278.66;189.23;;;;;;;22.44;44.14;100641.42;450305;117;922962;-75
2022/07/08 03:06:06;;;;;;;284.88;189.49;;;;;;;22.42;44.25;100643.68;450201;115;922796;-75
2022/07/08 03:07:09;;;;;;;287.75;188.69;;;;;;;22.42;44.48;100640.91;460016;115;923050;-75
2022/07/08 03:08:12;;;;;;;279.99;187.26;;;;;;;22.42;44.62;100641.73;461631;115;922510;-75
2022/07/08 03:09:15;;;;;;;277.99;183.84;;;;;;;22.43;44.72;100640.62;461599;115;922558;-75
2022/07/08 03:10:20;;;;;;;275.21;185.96;;;;;;;22.45;44.77;100643.91;461362;115;922532;-75
2022/07/08 03:11:23;;;;;;;276.70;188.50;;;;;;;22.47;44.83;100638.07;461599;115;930514;-75
2022/07/08 03:12:26;;;;;;;290.22;197.84;;;;;;;22.50;44.61;100642.20;461631;115;922666;-73
2022/07/08 03:13:29;;;;;;;307.69;207.83;;;;;;;22.53;44.48;100642.46;461615;115;922530;-75
2022/07/08 03:14:32;;;;;;;336.27;223.00;;;;;;;22.54;44.29;100637.73;456921;115;922623;-75
2022/07/08 03:15:35;;;;;;;320.83;220.74;;;;;;;22.56;43.98;100643.81;448938;118;922895;-75
2022/07/08 03:16:38;;;;;;;332.44;223.81;;;;;;;22.56;43.74;100635.47;449025;118;922916;-75
2022/07/08 03:17:41;;;;;;;330.54;224.74;;;;;;;22.58;43.64;100634.07;448949;118;922525;-75
2022/07/08 03:18:44;;;;;;;325.77;221.21;;;;;;;22.60;43.51;100640.18;448968;118;922831;-75
2022/07/08 03:19:47;;;;;;;341.11;226.61;;;;;;;22.62;43.42;100632.36;449000;118;922556;-76
2022/07/08 03:20:51;;;;;;;336.34;229.94;;;;;;;22.64;43.37;100629.30;448940;118;922569;-76
2022/07/08 03:21:54;;;;;;;336.92;228.89;;;;;;;22.65;43.29;100637.34;448991;118;923034;-73
2022/07/08 03:22:57;;;;;;;370.01;251.11;;;;;;;22.68;43.18;100633.13;449010;118;922590;-74
2022/07/08 03:24:00;;;;;;;395.34;269.27;;;;;;;22.69;42.96;100643.97;448989;118;922610;-75
2022/07/08 03:25:04;;;;;;;397.74;265.07;;;;;;;22.71;42.84;100636.20;448999;118;922629;-75
2022/07/08 03:26:07;;;;;;;394.33;263.79;;;;;;;22.72;42.60;100640.62;448926;118;922615;-74
2022/07/08 03:27:10;;;;;;;371.84;257.01;;;;;;;22.74;42.51;100638.38;449040;118;922650;-74
2022/07/08 03:28:13;;;;;;;383.02;258.72;;;;;;;22.75;42.47;100641.99;449027;118;923135;-74
2022/07/08 03:29:16;;;;;;;372.22;259.89;;;;;;;22.78;42.47;100638.61;449047;118;922551;-73
2022/07/08 03:30:21;;;;;;;382.92;262.02;;;;;;;22.79;42.46;100637.50;454123;114;922882;-74
2022/07/08 03:31:24;;;;;;;391.98;267.21;;;;;;;22.80;42.48;100637.20;455034;116;922667;-74
2022/07/08 03:32:28;;;;;;;408.94;285.13;;;;;;;22.82;42.42;100646.06;455094;116;922656;-74
2022/07/08 03:33:31;;;;;;;424.91;292.51;;;;;;;22.83;42.30;100644.95;455016;116;922633;-75
2022/07/08 03:34:34;;;;;;;444.09;306.82;;;;;;;22.85;42.19;100641.88;449423;118;922600;-74
2022/07/08 03:35:39;;;;;;;455.93;317.06;;;;;;;22.87;42.11;100639.64;449144;116;922600;-74
2022/07/08 03:36:42;;;;;;;446.31;310.20;;;;;;;22.88;42.04;100636.55;449407;117;922889;-74
2022/07/08 03:37:47;;;;;;;435.79;310.17;;;;;;;22.91;41.96;100637.09;449450;118;923075;-74
2022/07/08 03:38:50;;;;;;;438.85;303.17;;;;;;;22.92;41.94;100642.37;449254;118;922517;-74
2022/07/08 03:39:53;;;;;;;431.87;305.17;;;;;;;22.94;41.86;100639.27;449444;117;922511;-75
2022/07/08 03:42:18;;;;;;;427.74;298.18;;;;;;;22.97;41.84;100644.25;447637;118;923098;-74
2022/07/08 03:43:21;;;;;;;435.48;303.32;;;;;;;22.98;41.91;100643.97;455011;116;922625;-74
2022/07/08 03:44:24;;;;;;;435.33;301.50;;;;;;;23.01;41.84;100642.53;455492;116;930556;-74
2022/07/08 03:45:27;;;;;;;435.79;302.70;;;;;;;23.02;41.84;100652.54;455454;114;922571;-74
2022/07/08 03:46:31;;;;;;;438.14;301.67;;;;;;;23.03;41.86;100648.64;455579;116;922659;-74
2022/07/08 03:47:35;;;;;;;433.17;303.90;;;;;;;23.05;41.87;100651.94;455504;116;922588;-74
2022/07/08 03:48:38;;;;;;;432.75;307.79;;;;;;;23.06;41.87;100648.86;455407;116;922532;-74
2022/07/08 03:49:41;;;;;;;438.17;311.54;;;;;;;23.08;41.84;100646.63;455412;116;930530;-75
2022/07/08 03:50:44;;;;;;;441.39;310.09;;;;;;;23.09;41.78;100641.90;455515;114;922912;-74
2022/07/08 03:51:47;;;;;;;438.82;305.13;;;;;;;23.10;41.66;100651.91;455591;116;923052;-75
2022/07/08 03:52:50;;;;;;;447.16;307.72;;;;;;;23.11;41.52;100654.36;455524;116;922568;-74
2022/07/08 03:53:53;;;;;;;445.84;308.63;;;;;;;23.13;41.45;100656.86;455545;116;922578;-75
2022/07/08 03:54:56;;;;;;;449.29;307.38;;;;;;;23.14;41.39;100641.83;455546;116;922967;-74
2022/07/08 03:55:59;;;;;;;433.32;303.59;;;;;;;23.16;41.32;100650.69;455509;114;922771;-75
2022/07/08 03:57:02;;;;;;;439.24;303.73;;;;;;;23.16;41.32;100653.47;455544;116;923240;-75
2022/07/08 03:58:05;;;;;;;434.50;298.98;;;;;;;23.18;41.34;100656.80;455561;116;923084;-75
2022/07/08 03:59:08;;;;;;;443.80;299.84;;;;;;;23.19;41.32;100650.11;455579;116;923438;-75
2022/07/08 04:00:12;;;;;;;437.52;300.47;;;;;;;23.21;41.33;100647.88;455525;116;922678;-75
2022/07/08 04:01:15;;;;;;;423.52;291.33;;;;;;;23.22;41.39;100650.34;455460;116;922994;-75
2022/07/08 04:02:19;;;;;;;442.93;297.95;;;;;;;23.25;41.50;100657.27;455495;116;930597;-74
2022/07/08 04:03:22;;;;;;;436.71;296.82;;;;;;;23.26;41.55;100650.59;455559;116;922753;-74
2022/07/08 04:04:25;;;;;;;417.53;286.90;;;;;;;23.28;41.55;100654.72;455552;116;922653;-74
2022/07/08 04:05:28;;;;;;;431.23;295.13;;;;;;;23.32;41.63;100657.75;455562;114;922527;-75
2022/07/08 04:06:31;;;;;;;446.52;297.73;;;;;;;23.34;41.64;100655.48;454851;116;922842;-74
2022/07/08 04:07:34;;;;;;;438.81;289.68;;;;;;;23.37;41.65;100652.12;452495;117;923008;-74
2022/07/08 04:08:38;;;;;;;434.81;294.34;;;;;;;23.40;41.64;100650.67;452545;117;922632;-74
2022/07/08 04:09:41;;;;;;;435.46;294.51;;;;;;;23.42;41.55;100660.40;452500;117;922529;-74
2022/07/08 04:10:44;;;;;;;425.29;293.09;;;;;;;23.45;41.55;100648.66;452440;117;923021;-74
2022/07/08 04:11:47;;;;;;;436.10;291.78;;;;;;;23.47;41.57;100657.58;452511;117;922628;-75
2022/07/08 04:12:50;;;;;;;430.22;293.62;;;;;;;23.50;41.62;100656.13;452560;117;923163;-74
2022/07/08 04:13:53;;;;;;;431.47;293.63;;;;;;;23.52;41.61;100660.29;452532;117;922596;-75
2022/07/08 04:14:56;;;;;;;445.92;304.06;;;;;;;23.55;41.55;100659.67;454898;116;922659;-75
2022/07/08 04:16:00;;;;;;;445.61;306.26;;;;;;;23.58;41.39;100658.27;455478;116;922669;-75
2022/07/08 04:17:03;;;;;;;440.83;302.45;;;;;;;23.60;41.14;100654.03;455426;116;922554;-75
2022/07/08 04:18:06;;;;;;;457.98;310.43;;;;;;;23.63;41.04;100660.98;455544;116;922857;-75
2022/07/08 04:19:10;;;;;;;460.37;312.08;;;;;;;23.65;40.94;100656.75;455480;116;922589;-74
2022/07/08 04:20:13;;;;;;;450.61;310.79;;;;;;;23.68;40.91;100652.55;455515;116;922650;-75
2022/07/08 04:21:16;;;;;;;449.12;310.83;;;;;;;23.69;40.96;100649.48;455508;116;922605;-74
2022/07/08 04:22:19;;;;;;;472.54;328.42;;;;;;;23.72;40.98;100650.81;455512;116;922580;-75
2022/07/08 04:23:22;;;;;;;484.41;336.89;;;;;;;23.76;40.89;100656.63;455500;116;922632;-74
2022/07/08 04:24:27;;;;;;;473.75;334.13;;;;;;;23.77;40.65;100658.26;454297;116;922701;-74
2022/07/08 04:25:30;;;;;;;469.66;329.22;;;;;;;23.80;40.58;100660.46;455508;116;922668;-75
2022/07/08 04:26:34;;;;;;;488.67;343.64;;;;;;;23.83;40.48;100657.06;455532;116;922744;-75
2022/07/08 04:27:37;;;;;;;476.41;339.01;;;;;;;23.85;40.29;100661.21;455392;116;922760;-75
2022/07/08 04:28:41;;;;;;;470.24;333.44;;;;;;;23.89;40.05;100662.26;455511;116;922885;-75
2022/07/08 04:29:44;;;;;;;481.65;336.58;;;;;;;23.92;39.96;100661.67;455614;115;922976;-75
2022/07/08 04:30:47;;;;;;;476.42;339.22;;;;;;;23.96;39.90;100667.45;454036;115;922683;-76
2022/07/08 04:31:51;;;;;;;488.18;341.76;;;;;;;23.98;39.83;100660.44;453518;117;922922;-75
2022/07/08 04:32:54;;;;;;;478.64;335.90;;;;;;;24.01;39.85;100661.80;453439;117;922564;-74
2022/07/08 04:33:57;;;;;;;457.98;317.64;;;;;;;24.03;39.85;100656.77;454218;116;930750;-73
2022/07/08 04:35:00;;;;;;;449.36;306.09;;;;;;;24.05;39.71;100665.64;455522;116;922637;-75
2022/07/08 04:36:03;;;;;;;438.36;303.09;;;;;;;24.08;39.48;100653.91;455520;116;922580;-75
2022/07/08 04:37:06;;;;;;;448.84;304.16;;;;;;;24.10;39.28;100660.81;455455;116;923038;-74
2022/07/08 04:38:09;;;;;;;443.63;299.21;;;;;;;24.14;39.17;100658.27;455538;116;924782;-76
2022/07/08 04:39:12;;;;;;;450.78;303.19;;;;;;;24.16;39.05;100655.16;455524;116;922718;-74
2022/07/08 04:40:33;;;;;;;;;;;;;;;24.20;38.91;100668.23;459169;114;922061;-74
2022/07/08 04:41:37;;;;;;;421.77;278.96;;;;;;;24.23;38.64;100664.83;455504;116;922732;-74